createdAt,value
2023-05-13T00:01:09.640Z,12.33
2023-05-13T00:03:36.342Z,12.30
2023-05-13T00:06:02.872Z,12.27
2023-05-13T00:08:29.344Z,12.27
2023-05-13T00:10:55.814Z,12.29
2023-05-13T00:13:22.274Z,12.26
2023-05-13T00:15:48.799Z,12.27
2023-05-13T00:18:15.429Z,12.29
2023-05-13T00:20:41.953Z,12.25
2023-05-13T00:23:08.627Z,12.26
2023-05-13T00:25:35.013Z,12.25
2023-05-13T00:28:01.584Z,12.27
2023-05-13T00:30:28.039Z,12.27
2023-05-13T00:32:54.487Z,12.26
2023-05-13T00:35:20.986Z,12.23
2023-05-13T00:37:47.370Z,12.21
2023-05-13T00:40:22.393Z,12.19
2023-05-13T00:42:50.006Z,12.23
2023-05-13T00:45:16.780Z,12.28
2023-05-13T00:47:44.122Z,12.24
2023-05-13T00:50:11.438Z,12.25
2023-05-13T00:52:39.802Z,12.28
2023-05-13T00:55:07.540Z,12.25
2023-05-13T00:57:34.831Z,12.27
2023-05-13T01:00:02.307Z,12.29
2023-05-13T01:03:11.600Z,12.32
2023-05-13T01:06:04.916Z,12.34
2023-05-13T01:08:52.618Z,12.32
2023-05-13T01:11:24.321Z,12.32
2023-05-13T01:13:57.778Z,12.32
2023-05-13T01:16:49.384Z,12.28
2023-05-13T01:19:53.216Z,12.27
2023-05-13T01:22:19.658Z,12.21
2023-05-13T01:24:46.180Z,12.20
2023-05-13T01:27:13.774Z,12.21
2023-05-13T01:29:40.970Z,12.23
2023-05-13T01:32:09.972Z,12.26
2023-05-13T01:34:38.414Z,12.22
2023-05-13T01:37:05.369Z,12.16
2023-05-13T01:39:32.323Z,12.08
2023-05-13T01:41:58.918Z,12.01
2023-05-13T01:44:25.445Z,11.93
2023-05-13T01:46:53.372Z,11.96
2023-05-13T01:49:19.891Z,12.01
2023-05-13T01:51:46.306Z,12.06
2023-05-13T01:54:12.723Z,12.08
2023-05-13T01:56:39.162Z,12.08
2023-05-13T01:59:05.638Z,12.08
2023-05-13T02:01:32.043Z,12.12
2023-05-13T02:03:59.963Z,12.12
2023-05-13T02:06:27.844Z,12.11
2023-05-13T02:08:54.789Z,12.14
2023-05-13T02:11:22.351Z,12.10
2023-05-13T02:13:48.762Z,12.05
2023-05-13T02:16:17.499Z,12.01
2023-05-13T02:18:44.646Z,11.93
2023-05-13T02:21:11.117Z,11.90
2023-05-13T02:23:37.591Z,11.91
2023-05-13T02:26:04.151Z,11.91
2023-05-13T02:28:30.649Z,11.87
2023-05-13T02:30:57.102Z,11.89
2023-05-13T02:33:23.529Z,11.87
2023-05-13T02:35:50.116Z,11.88
2023-05-13T02:38:16.492Z,11.85
2023-05-13T02:40:42.969Z,11.88
2023-05-13T02:43:09.448Z,11.95
2023-05-13T02:45:36.002Z,12.00
2023-05-13T02:48:02.468Z,12.01
2023-05-13T02:50:28.913Z,11.96
2023-05-13T02:52:55.301Z,11.98
2023-05-13T02:55:21.891Z,11.97
2023-05-13T02:57:48.328Z,11.97
2023-05-13T03:00:15.397Z,12.03
2023-05-13T03:02:41.933Z,12.05
2023-05-13T03:05:08.761Z,12.01
2023-05-13T03:07:35.287Z,11.92
2023-05-13T03:10:01.748Z,11.89
2023-05-13T03:12:28.208Z,11.93
2023-05-13T03:14:54.631Z,11.92
2023-05-13T03:17:21.076Z,11.92
2023-05-13T03:19:47.531Z,11.93
2023-05-13T03:22:13.965Z,11.93
2023-05-13T03:24:41.607Z,11.88
2023-05-13T03:27:08.076Z,11.87
2023-05-13T03:29:34.555Z,11.83
2023-05-13T03:32:01.157Z,11.71
2023-05-13T03:34:27.547Z,11.74
2023-05-13T03:36:54.100Z,11.70
2023-05-13T03:39:20.563Z,11.70
2023-05-13T03:41:47.049Z,11.66
2023-05-13T03:44:13.692Z,11.61
2023-05-13T03:46:40.252Z,11.50
2023-05-13T03:49:07.102Z,11.51
2023-05-13T03:51:34.240Z,11.57
2023-05-13T03:54:01.124Z,11.56
2023-05-13T03:56:28.518Z,11.51
2023-05-13T03:58:55.345Z,11.46
2023-05-13T04:01:21.907Z,11.39
2023-05-13T04:03:49.814Z,11.39
2023-05-13T04:06:16.713Z,11.38
2023-05-13T04:08:43.593Z,11.44
2023-05-13T04:11:10.041Z,11.47
2023-05-13T04:13:36.632Z,11.52
2023-05-13T04:16:03.820Z,11.57
2023-05-13T04:18:31.100Z,11.60
2023-05-13T04:20:57.880Z,11.61
2023-05-13T04:23:24.360Z,11.62
2023-05-13T04:25:52.441Z,11.59
2023-05-13T04:28:19.463Z,11.54
2023-05-13T04:30:51.399Z,11.49
2023-05-13T04:33:17.847Z,11.58
2023-05-13T04:35:44.727Z,11.61
2023-05-13T04:38:12.090Z,11.57
2023-05-13T04:40:38.502Z,11.56
2023-05-13T04:43:04.920Z,11.59
2023-05-13T04:45:31.852Z,11.62
2023-05-13T04:47:58.577Z,11.65
2023-05-13T04:50:25.416Z,11.70
2023-05-13T04:52:54.565Z,11.73
2023-05-13T04:55:25.988Z,11.76
2023-05-13T04:57:53.939Z,11.72
2023-05-13T05:00:38.485Z,11.75
2023-05-13T05:03:04.975Z,11.82
2023-05-13T05:05:31.534Z,11.85
2023-05-13T05:07:57.943Z,11.86
2023-05-13T05:10:24.823Z,11.88
2023-05-13T05:12:51.243Z,11.89
2023-05-13T05:15:21.440Z,11.93
2023-05-13T05:17:48.098Z,11.98
2023-05-13T05:20:14.683Z,11.99
2023-05-13T05:22:42.152Z,12.07
2023-05-13T05:25:09.789Z,12.09
2023-05-13T05:27:36.334Z,12.10
2023-05-13T05:30:03.018Z,12.12
2023-05-13T05:32:29.535Z,12.13
2023-05-13T05:34:56.156Z,12.21
2023-05-13T05:37:22.634Z,12.24
2023-05-13T05:39:49.082Z,12.26
2023-05-13T05:42:15.579Z,12.30
2023-05-13T05:44:42.037Z,12.30
2023-05-13T05:47:08.491Z,12.35
2023-05-13T05:49:34.931Z,12.38
2023-05-13T05:52:01.462Z,12.40
2023-05-13T05:54:28.408Z,12.46
2023-05-13T05:56:54.819Z,12.52
2023-05-13T05:59:21.285Z,12.53
2023-05-13T06:01:47.804Z,12.53
2023-05-13T06:04:14.483Z,12.50
2023-05-13T06:06:41.118Z,12.40
2023-05-13T06:09:07.617Z,12.47
2023-05-13T06:11:34.197Z,12.57
2023-05-13T06:14:00.874Z,12.61
2023-05-13T06:16:27.521Z,12.65
2023-05-13T06:18:54.169Z,12.70
2023-05-13T06:21:20.762Z,12.79
2023-05-13T06:23:47.166Z,12.90
2023-05-13T06:26:13.588Z,13.00
2023-05-13T06:28:40.069Z,13.12
2023-05-13T06:31:06.547Z,13.20
2023-05-13T06:33:33.527Z,13.23
2023-05-13T06:35:59.966Z,13.17
2023-05-13T06:38:26.355Z,13.27
2023-05-13T06:41:08.753Z,13.33
2023-05-13T06:43:35.219Z,13.35
2023-05-13T06:46:01.906Z,13.40
2023-05-13T06:48:28.313Z,13.37
2023-05-13T06:50:54.832Z,13.34
2023-05-13T06:53:21.402Z,13.32
2023-05-13T06:55:48.504Z,13.31
2023-05-13T06:58:15.005Z,13.36
2023-05-13T07:00:41.806Z,13.41
2023-05-13T07:03:08.593Z,13.37
2023-05-13T07:05:35.392Z,13.36
2023-05-13T07:08:06.667Z,13.35
2023-05-13T07:10:34.188Z,13.34
2023-05-13T07:13:04.570Z,13.41
2023-05-13T07:15:31.269Z,13.45
2023-05-13T07:17:57.754Z,13.50
2023-05-13T07:20:27.590Z,13.44
2023-05-13T07:22:54.112Z,13.47
2023-05-13T07:25:20.757Z,13.44
2023-05-13T07:27:48.050Z,13.48
2023-05-13T07:30:14.958Z,13.59
2023-05-13T07:32:41.884Z,13.62
2023-05-13T07:35:09.290Z,13.64
2023-05-13T07:37:37.085Z,13.68
2023-05-13T07:40:07.769Z,13.66
2023-05-13T07:42:34.896Z,13.63
2023-05-13T07:45:01.456Z,13.62
2023-05-13T07:47:29.213Z,13.69
2023-05-13T07:49:55.861Z,13.75
2023-05-13T07:52:22.439Z,13.69
2023-05-13T07:54:49.378Z,13.69
2023-05-13T07:57:16.051Z,13.62
2023-05-13T07:59:44.655Z,13.66
2023-05-13T08:02:12.481Z,13.74
2023-05-13T08:04:38.995Z,13.84
2023-05-13T08:07:05.894Z,13.87
2023-05-13T08:09:32.296Z,13.88
2023-05-13T08:11:58.708Z,13.93
2023-05-13T08:14:25.173Z,13.98
2023-05-13T08:16:51.650Z,14.05
2023-05-13T08:19:19.997Z,14.10
2023-05-13T08:21:46.569Z,14.19
2023-05-13T08:24:12.981Z,14.34
2023-05-13T08:26:39.412Z,14.46
2023-05-13T08:29:05.826Z,14.58
2023-05-13T08:31:32.545Z,14.77
2023-05-13T08:33:59.103Z,15.00
2023-05-13T08:36:26.402Z,15.10
2023-05-13T08:38:53.171Z,15.09
2023-05-13T08:41:21.854Z,15.18
2023-05-13T08:43:49.881Z,15.53
2023-05-13T08:46:18.457Z,15.84
2023-05-13T08:48:45.641Z,16.02
2023-05-13T08:51:12.453Z,16.10
2023-05-13T08:53:40.745Z,16.24
2023-05-13T08:56:09.398Z,16.27
2023-05-13T08:58:35.957Z,16.23
2023-05-13T09:01:05.459Z,16.22
2023-05-13T09:03:32.410Z,16.31
2023-05-13T09:06:02.348Z,16.34
2023-05-13T09:08:28.915Z,16.35
2023-05-13T09:10:55.534Z,16.56
2023-05-13T09:13:25.808Z,16.62
2023-05-13T09:15:53.138Z,16.74
2023-05-13T09:18:19.785Z,16.96
2023-05-13T09:20:46.502Z,17.29
2023-05-13T09:23:13.560Z,17.24
2023-05-13T09:25:40.207Z,17.26
2023-05-13T09:28:07.897Z,16.90
2023-05-13T09:30:38.472Z,16.54
2023-05-13T09:33:12.074Z,16.24
2023-05-13T09:35:44.050Z,16.10
2023-05-13T09:38:19.255Z,16.60
2023-05-13T09:40:57.278Z,16.92
2023-05-13T09:43:25.666Z,17.13
2023-05-13T09:45:56.358Z,17.27
2023-05-13T09:48:25.869Z,17.16
2023-05-13T09:50:53.530Z,17.17
2023-05-13T09:53:22.960Z,17.22
2023-05-13T09:55:54.782Z,17.48
2023-05-13T09:58:28.369Z,17.85
2023-05-13T10:00:55.272Z,17.81
2023-05-13T10:03:22.188Z,17.65
2023-05-13T10:05:49.874Z,17.71
2023-05-13T10:08:18.318Z,17.77
2023-05-13T10:10:46.637Z,17.85
2023-05-13T10:13:20.089Z,17.63
2023-05-13T10:15:54.392Z,17.42
2023-05-13T10:18:22.578Z,17.48
2023-05-13T10:20:55.379Z,17.64
2023-05-13T10:23:23.949Z,17.80
2023-05-13T10:25:53.169Z,17.81
2023-05-13T10:28:20.152Z,18.15
2023-05-13T10:30:48.584Z,18.07
2023-05-13T10:33:16.306Z,18.16
2023-05-13T10:36:07.953Z,18.39
2023-05-13T10:39:05.966Z,18.39
2023-05-13T10:42:00.203Z,18.58
2023-05-13T10:44:27.390Z,19.02
2023-05-13T10:46:56.485Z,19.19
2023-05-13T10:49:24.699Z,18.57
2023-05-13T10:51:51.284Z,18.30
2023-05-13T10:54:20.128Z,17.85
2023-05-13T10:56:55.770Z,17.60
2023-05-13T10:59:22.354Z,17.55
2023-05-13T11:01:49.003Z,17.61
2023-05-13T11:04:21.401Z,17.69
2023-05-13T11:06:50.662Z,17.54
2023-05-13T11:09:23.152Z,17.37
2023-05-13T11:11:54.083Z,17.40
2023-05-13T11:14:22.329Z,17.47
2023-05-13T11:17:01.455Z,17.40
2023-05-13T11:19:48.493Z,17.66
2023-05-13T11:22:19.685Z,17.87
2023-05-13T11:25:08.726Z,18.05
2023-05-13T11:27:40.080Z,18.32
2023-05-13T11:30:27.332Z,18.32
2023-05-13T11:32:58.708Z,18.05
2023-05-13T11:35:30.171Z,17.82
2023-05-13T11:38:00.121Z,17.68
2023-05-13T11:40:32.598Z,17.62
2023-05-13T11:43:05.173Z,17.56
2023-05-13T11:45:32.361Z,17.55
2023-05-13T11:48:01.741Z,17.43
2023-05-13T11:50:30.737Z,17.42
2023-05-13T11:52:59.631Z,17.41
2023-05-13T11:55:36.356Z,17.45
2023-05-13T11:58:04.079Z,17.42
2023-05-13T12:00:35.943Z,17.42
2023-05-13T12:03:17.230Z,17.33
2023-05-13T12:05:44.664Z,17.32
2023-05-13T12:08:11.446Z,17.34
2023-05-13T12:10:45.211Z,17.33
2023-05-13T12:13:15.893Z,17.39
2023-05-13T12:15:42.814Z,17.40
2023-05-13T12:18:09.536Z,17.41
2023-05-13T12:20:40.334Z,17.65
2023-05-13T12:23:14.215Z,17.78
2023-05-13T12:25:54.572Z,17.70
2023-05-13T12:28:23.373Z,17.66
2023-05-13T12:31:05.749Z,17.60
2023-05-13T12:33:43.180Z,17.56
2023-05-13T12:36:39.918Z,17.55
2023-05-13T12:39:13.773Z,17.54
2023-05-13T12:41:42.263Z,17.61
2023-05-13T12:44:14.525Z,17.93
2023-05-13T12:46:54.974Z,18.05
2023-05-13T12:49:22.576Z,17.98
2023-05-13T12:51:51.544Z,17.83
2023-05-13T12:54:18.371Z,17.75
2023-05-13T12:56:44.845Z,17.64
2023-05-13T12:59:13.302Z,17.61
2023-05-13T13:01:40.372Z,17.60
2023-05-13T13:04:10.801Z,17.56
2023-05-13T13:06:46.689Z,17.55
2023-05-13T13:09:13.426Z,17.63
2023-05-13T13:11:43.446Z,17.66
2023-05-13T13:14:09.863Z,17.68
2023-05-13T13:16:36.325Z,17.67
2023-05-13T13:19:02.821Z,17.71
2023-05-13T13:21:29.274Z,17.76
2023-05-13T13:23:55.796Z,17.72
2023-05-13T13:26:23.126Z,17.71
2023-05-13T13:28:49.651Z,17.73
2023-05-13T13:31:17.220Z,17.78
2023-05-13T13:33:43.783Z,17.84
2023-05-13T13:36:10.271Z,17.85
2023-05-13T13:38:36.647Z,17.91
2023-05-13T13:41:03.105Z,18.21
2023-05-13T13:43:29.579Z,18.56
2023-05-13T13:46:05.107Z,18.76
2023-05-13T13:48:31.605Z,18.76
2023-05-13T13:50:59.548Z,18.53
2023-05-13T13:53:26.298Z,18.53
2023-05-13T13:55:52.819Z,18.62
2023-05-13T13:58:19.224Z,18.80
2023-05-13T14:00:45.748Z,18.86
2023-05-13T14:03:12.732Z,18.89
2023-05-13T14:05:39.427Z,18.91
2023-05-13T14:08:06.370Z,18.77
2023-05-13T14:10:32.829Z,18.73
2023-05-13T14:12:59.464Z,18.74
2023-05-13T14:15:28.723Z,18.69
2023-05-13T14:17:55.402Z,18.62
2023-05-13T14:20:22.230Z,18.54
2023-05-13T14:22:49.041Z,18.49
2023-05-13T14:25:15.565Z,18.51
2023-05-13T14:27:42.144Z,18.49
2023-05-13T14:30:09.508Z,18.53
2023-05-13T14:32:35.939Z,18.54
2023-05-13T14:35:02.503Z,18.63
2023-05-13T14:37:29.031Z,18.71
2023-05-13T14:39:55.917Z,18.76
2023-05-13T14:42:22.315Z,18.84
2023-05-13T14:44:48.769Z,18.92
2023-05-13T14:47:15.424Z,19.02
2023-05-13T14:49:41.891Z,18.80
2023-05-13T14:52:08.395Z,18.67
2023-05-13T14:54:36.829Z,18.71
2023-05-13T14:57:04.324Z,18.64
2023-05-13T14:59:32.204Z,18.65
2023-05-13T15:01:58.892Z,18.63
2023-05-13T15:04:25.428Z,18.59
2023-05-13T15:06:52.041Z,18.32
2023-05-13T15:09:19.605Z,18.01
2023-05-13T15:11:46.205Z,17.83
2023-05-13T15:14:18.029Z,17.76
2023-05-13T15:16:50.845Z,17.72
2023-05-13T15:19:18.639Z,17.59
2023-05-13T15:21:45.119Z,17.56
2023-05-13T15:24:11.523Z,17.65
2023-05-13T15:26:38.685Z,17.58
2023-05-13T15:29:05.129Z,17.61
2023-05-13T15:31:32.191Z,17.76
2023-05-13T15:33:59.468Z,17.89
2023-05-13T15:36:25.946Z,17.83
2023-05-13T15:38:52.375Z,17.86
2023-05-13T15:41:18.852Z,17.88
2023-05-13T15:43:45.296Z,17.75
2023-05-13T15:46:11.735Z,17.79
2023-05-13T15:49:00.174Z,17.76
2023-05-13T15:51:27.388Z,17.81
2023-05-13T15:53:56.232Z,17.76
2023-05-13T15:56:22.781Z,17.60
2023-05-13T15:58:49.829Z,17.51
2023-05-13T16:01:16.403Z,17.36
2023-05-13T16:03:43.037Z,17.21
2023-05-13T16:06:09.653Z,17.05
2023-05-13T16:08:36.094Z,17.01
2023-05-13T16:11:02.548Z,17.00
2023-05-13T16:13:29.042Z,16.90
2023-05-13T16:15:55.696Z,16.79
2023-05-13T16:18:26.797Z,16.14
2023-05-13T16:20:53.778Z,15.59
2023-05-13T16:23:20.620Z,15.36
2023-05-13T16:25:47.251Z,15.35
2023-05-13T16:28:13.875Z,15.24
2023-05-13T16:30:40.931Z,15.14
2023-05-13T16:33:09.611Z,15.01
2023-05-13T16:35:36.470Z,14.96
2023-05-13T16:38:05.897Z,14.94
2023-05-13T16:40:32.382Z,15.00
2023-05-13T16:43:01.770Z,14.89
2023-05-13T16:45:29.754Z,14.87
2023-05-13T16:47:56.732Z,14.85
2023-05-13T16:50:23.475Z,14.72
2023-05-13T16:52:50.308Z,14.76
2023-05-13T16:55:16.800Z,14.71
2023-05-13T16:57:43.622Z,14.71
2023-05-13T17:00:10.648Z,14.68
2023-05-13T17:02:37.191Z,14.66
2023-05-13T17:05:03.994Z,14.64
2023-05-13T17:07:30.708Z,14.51
2023-05-13T17:09:57.193Z,14.54
2023-05-13T17:12:23.642Z,14.50
2023-05-13T17:14:50.084Z,14.48
2023-05-13T17:17:16.519Z,14.45
2023-05-13T17:19:43.124Z,14.37
2023-05-13T17:22:09.706Z,14.49
2023-05-13T17:24:36.164Z,14.43
2023-05-13T17:27:02.681Z,14.30
2023-05-13T17:29:29.164Z,14.26
2023-05-13T17:31:55.730Z,14.34
2023-05-13T17:34:22.137Z,14.36
2023-05-13T17:36:50.137Z,14.43
2023-05-13T17:39:16.924Z,14.58
2023-05-13T17:41:43.373Z,14.66
2023-05-13T17:44:09.851Z,14.67
2023-05-13T17:46:37.139Z,14.66
2023-05-13T17:49:04.269Z,14.67
2023-05-13T17:51:30.874Z,14.56
2023-05-13T17:53:57.330Z,14.49
2023-05-13T17:56:24.804Z,14.48
2023-05-13T17:58:51.225Z,14.32
2023-05-13T18:01:19.709Z,14.34
2023-05-13T18:03:46.131Z,14.40
2023-05-13T18:06:12.669Z,14.45
2023-05-13T18:08:39.103Z,14.46
2023-05-13T18:11:05.652Z,14.41
2023-05-13T18:13:32.574Z,14.31
2023-05-13T18:15:59.838Z,14.22
2023-05-13T18:18:26.407Z,14.04
2023-05-13T18:20:52.981Z,13.93
2023-05-13T18:23:19.481Z,13.89
2023-05-13T18:25:55.012Z,13.91
2023-05-13T18:28:22.261Z,13.86
2023-05-13T18:30:48.654Z,13.91
2023-05-13T18:33:15.177Z,13.87
2023-05-13T18:35:41.621Z,13.85
2023-05-13T18:38:08.041Z,13.77
2023-05-13T18:40:34.513Z,13.74
2023-05-13T18:43:00.930Z,13.70
2023-05-13T18:45:27.365Z,13.70
2023-05-13T18:47:53.736Z,13.73
2023-05-13T18:50:20.418Z,13.64
2023-05-13T18:52:47.158Z,13.54
2023-05-13T18:55:13.545Z,13.48
2023-05-13T18:57:39.946Z,13.45
2023-05-13T19:00:07.103Z,13.48
2023-05-13T19:02:34.946Z,13.48
2023-05-13T19:05:01.597Z,13.50
2023-05-13T19:07:28.022Z,13.53
2023-05-13T19:09:54.455Z,13.56
2023-05-13T19:12:20.846Z,13.51
2023-05-13T19:14:47.236Z,13.42
2023-05-13T19:17:13.882Z,13.33
2023-05-13T19:19:41.065Z,13.30
2023-05-13T19:22:07.493Z,13.28
2023-05-13T19:24:33.876Z,13.29
2023-05-13T19:27:01.122Z,13.30
2023-05-13T19:29:27.570Z,13.38
2023-05-13T19:31:53.978Z,13.38
2023-05-13T19:34:20.622Z,13.34
2023-05-13T19:36:47.067Z,13.27
2023-05-13T19:39:13.503Z,13.23
2023-05-13T19:41:39.990Z,13.22
2023-05-13T19:44:07.220Z,13.18
2023-05-13T19:46:33.680Z,13.17
2023-05-13T19:49:00.155Z,13.17
2023-05-13T19:51:26.771Z,13.20
2023-05-13T19:53:53.164Z,13.22
2023-05-13T19:56:19.610Z,13.18
2023-05-13T19:58:46.068Z,13.16
2023-05-13T20:01:14.730Z,13.17
2023-05-13T20:03:41.719Z,13.22
2023-05-13T20:06:08.379Z,13.33
2023-05-13T20:08:35.754Z,13.33
2023-05-13T20:11:02.325Z,13.38
2023-05-13T20:13:28.771Z,13.46
2023-05-13T20:15:55.208Z,13.37
2023-05-13T20:18:21.957Z,13.25
2023-05-13T20:20:48.490Z,13.26
2023-05-13T20:23:14.893Z,13.31
2023-05-13T20:25:41.471Z,13.30
2023-05-13T20:28:07.942Z,13.23
2023-05-13T20:30:34.394Z,13.27
2023-05-13T20:33:01.002Z,13.30
2023-05-13T20:35:27.610Z,13.17
2023-05-13T20:37:54.401Z,13.16
2023-05-13T20:40:21.425Z,13.22
2023-05-13T20:42:48.085Z,13.28
2023-05-13T20:45:14.519Z,13.28
2023-05-13T20:47:41.425Z,13.27
2023-05-13T20:50:08.380Z,13.27
2023-05-13T20:52:34.873Z,13.22
2023-05-13T20:55:01.363Z,13.15
2023-05-13T20:57:27.752Z,13.05
2023-05-13T20:59:54.312Z,13.03
2023-05-13T21:02:21.077Z,12.99
2023-05-13T21:04:47.488Z,12.93
2023-05-13T21:07:13.909Z,12.86
2023-05-13T21:09:40.401Z,12.81
2023-05-13T21:12:06.951Z,12.81
2023-05-13T21:14:33.337Z,12.86
2023-05-13T21:17:03.074Z,12.90
2023-05-13T21:19:30.499Z,12.91
2023-05-13T21:21:57.638Z,12.92
2023-05-13T21:24:24.073Z,12.96
2023-05-13T21:26:50.723Z,12.95
2023-05-13T21:29:18.854Z,12.97
2023-05-13T21:31:46.085Z,13.02
2023-05-13T21:34:12.761Z,13.07
2023-05-13T21:36:39.320Z,13.08
2023-05-13T21:39:10.425Z,13.04
2023-05-13T21:41:36.818Z,13.03
2023-05-13T21:44:03.341Z,13.05
2023-05-13T21:46:29.791Z,13.08
2023-05-13T21:48:56.219Z,13.12
2023-05-13T21:51:22.708Z,13.09
2023-05-13T21:53:49.171Z,13.10
2023-05-13T21:56:15.671Z,13.15
2023-05-13T21:58:42.176Z,13.16
2023-05-13T22:01:08.644Z,13.19
2023-05-13T22:03:35.220Z,13.18
2023-05-13T22:06:02.331Z,13.15
2023-05-13T22:08:29.657Z,13.16
2023-05-13T22:10:56.082Z,13.19
2023-05-13T22:13:22.561Z,13.19
2023-05-13T22:15:49.092Z,13.16
2023-05-13T22:18:15.848Z,13.10
2023-05-13T22:20:42.498Z,13.09
2023-05-13T22:23:08.939Z,12.97
2023-05-13T22:25:35.354Z,12.95
2023-05-13T22:28:01.838Z,13.02
2023-05-13T22:30:28.230Z,12.99
2023-05-13T22:32:55.754Z,13.03
2023-05-13T22:35:22.333Z,13.10
2023-05-13T22:37:50.491Z,13.26
2023-05-13T22:40:16.943Z,13.31
2023-05-13T22:42:43.377Z,13.33
2023-05-13T22:45:10.241Z,13.38
2023-05-13T22:47:39.491Z,13.44
2023-05-13T22:50:06.524Z,13.46
2023-05-13T22:52:32.912Z,13.48
2023-05-13T22:54:59.331Z,13.43
2023-05-13T22:57:27.019Z,13.37
2023-05-13T22:59:53.460Z,13.40
2023-05-13T23:02:19.963Z,13.39
2023-05-13T23:04:46.355Z,13.41
2023-05-13T23:07:12.745Z,13.43
2023-05-13T23:09:39.180Z,13.42
2023-05-13T23:12:06.281Z,13.41
2023-05-13T23:14:32.713Z,13.43
2023-05-13T23:16:59.181Z,13.39
2023-05-13T23:19:28.226Z,13.38
2023-05-13T23:21:54.605Z,13.42
2023-05-13T23:24:21.138Z,13.39
2023-05-13T23:26:48.595Z,13.37
2023-05-13T23:29:15.014Z,13.39
2023-05-13T23:31:41.481Z,13.38
2023-05-13T23:34:08.490Z,13.37
2023-05-13T23:36:35.295Z,13.32
2023-05-13T23:39:01.673Z,13.35
2023-05-13T23:41:28.514Z,13.39
2023-05-13T23:43:54.944Z,13.39
2023-05-13T23:46:21.415Z,13.32
2023-05-13T23:48:47.865Z,13.34
2023-05-13T23:51:14.272Z,13.34
2023-05-13T23:53:40.925Z,13.33
2023-05-13T23:56:07.631Z,13.38
2023-05-13T23:58:34.070Z,13.39
